Time;durP1;ratioP1;P1;durP2;ratioP2;P2;SDS_P1;SDS_P2;PMS_P1;PMS_P2;Temp;Humidity;BMP_temperature;BMP_pressure;BME280_temperature;BME280_humidity;BME280_pressure;Samples;Min_cycle;Max_cycle;Signal;HPM_P1;HPM_P2
2023/03/23 00:01:04;;;;;;;4.18;2.38;;;12.50;54.00;;;;;;5036618;28;20075;-72
2023/03/23 00:03:31;;;;;;;5.80;2.97;;;12.50;53.90;;;;;;5035671;28;20060;-73
2023/03/23 00:06:04;;;;;;;4.78;2.45;;;12.50;53.80;;;;;;5035485;28;20025;-72
2023/03/23 00:08:31;;;;;;;3.80;2.33;;;12.50;53.80;;;;;;5035615;28;20026;-73
2023/03/23 00:10:58;;;;;;;4.10;2.20;;;12.50;53.90;;;;;;5035655;28;20390;-73
2023/03/23 00:13:24;;;;;;;4.93;2.42;;;12.50;54.00;;;;;;5035154;28;20385;-74
2023/03/23 00:15:51;;;;;;;3.92;2.40;;;12.50;53.90;;;;;;5035380;28;20021;-73
2023/03/23 00:18:20;;;;;;;5.00;2.60;;;12.50;54.10;;;;;;5035279;28;20049;-73
2023/03/23 00:20:48;;;;;;;7.13;2.65;;;12.50;54.10;;;;;;5035234;28;20056;-73
2023/03/23 00:23:18;;;;;;;3.40;1.90;;;12.40;54.20;;;;;;5035147;28;20033;-73
2023/03/23 00:25:48;;;;;;;4.03;1.85;;;12.50;54.20;;;;;;5034935;28;20453;-73
2023/03/23 00:28:15;;;;;;;4.57;2.17;;;12.40;54.20;;;;;;5035301;28;20026;-73
2023/03/23 00:30:42;;;;;;;4.30;2.05;;;12.50;54.30;;;;;;5035234;28;20436;-73
2023/03/23 00:33:08;;;;;;;3.53;2.00;;;12.50;54.50;;;;;;5034864;28;20022;-73
2023/03/23 00:35:37;;;;;;;2.22;1.63;;;12.50;54.20;;;;;;5034791;28;20025;-73
2023/03/23 00:38:04;;;;;;;3.22;1.83;;;12.50;54.00;;;;;;5034578;28;20050;-73
2023/03/23 00:40:30;;;;;;;3.95;2.05;;;12.50;54.00;;;;;;5033759;28;20022;-73
2023/03/23 00:42:56;;;;;;;4.20;1.80;;;12.40;54.10;;;;;;5033660;28;20025;-73
2023/03/23 00:45:21;;;;;;;3.35;1.95;;;12.40;54.80;;;;;;5033552;28;20462;-72
2023/03/23 00:47:50;;;;;;;2.67;1.70;;;12.50;54.10;;;;;;5033353;28;20389;-73
2023/03/23 00:50:17;;;;;;;4.63;1.67;;;12.50;54.30;;;;;;5033211;28;20026;-72
2023/03/23 00:52:42;;;;;;;6.72;1.67;;;12.50;54.20;;;;;;5033273;28;20029;-73
2023/03/23 00:55:08;;;;;;;2.83;1.70;;;12.50;54.20;;;;;;5033473;28;20124;-72
2023/03/23 00:57:34;;;;;;;4.75;1.60;;;12.50;54.10;;;;;;5032895;28;20371;-72
2023/03/23 00:59:59;;;;;;;5.22;1.48;;;12.50;54.00;;;;;;5033296;28;20121;-72
2023/03/23 01:02:25;;;;;;;3.53;1.70;;;12.50;54.10;;;;;;5032903;28;20017;-73
2023/03/23 01:04:52;;;;;;;6.30;1.63;;;12.40;54.20;;;;;;5032833;28;20022;-73
2023/03/23 01:07:20;;;;;;;3.45;1.50;;;12.50;54.40;;;;;;5033006;28;20053;-72
2023/03/23 01:09:46;;;;;;;2.83;1.23;;;12.40;54.10;;;;;;5033223;28;20076;-72
2023/03/23 01:12:12;;;;;;;3.72;1.52;;;12.40;54.10;;;;;;5033190;28;20022;-72
2023/03/23 01:14:38;;;;;;;3.85;1.20;;;12.40;54.30;;;;;;5033054;28;20513;-72
2023/03/23 01:17:03;;;;;;;4.85;1.02;;;12.40;54.20;;;;;;5032217;28;20039;-72
2023/03/23 01:19:29;;;;;;;4.45;1.40;;;12.40;54.10;;;;;;5033128;28;20021;-72
2023/03/23 01:21:55;;;;;;;3.20;1.42;;;12.40;53.90;;;;;;5033082;28;20029;-72
2023/03/23 01:24:20;;;;;;;3.03;1.33;;;12.40;53.80;;;;;;5033224;28;20408;-72
2023/03/23 01:26:47;;;;;;;5.80;1.45;;;12.40;53.30;;;;;;5032936;28;20021;-72
2023/03/23 01:29:13;;;;;;;4.72;1.05;;;12.40;53.60;;;;;;5032916;28;20028;-72
2023/03/23 01:31:39;;;;;;;2.33;1.33;;;12.40;54.50;;;;;;5032747;28;20076;-72
2023/03/23 01:34:05;;;;;;;2.28;1.30;;;12.50;53.70;;;;;;5016278;28;20034;-72
2023/03/23 01:36:32;;;;;;;2.83;1.80;;;12.50;53.20;;;;;;5032782;28;20025;-73
2023/03/23 01:39:03;;;;;;;1.90;1.10;;;12.50;53.10;;;;;;4984728;28;1401392;-72
2023/03/23 01:41:30;;;;;;;3.58;1.25;;;12.50;52.60;;;;;;5033914;28;20478;-72
2023/03/23 01:44:04;;;;;;;4.13;1.10;;;12.70;51.50;;;;;;5033920;28;20025;-73
2023/03/23 01:46:32;;;;;;;4.55;1.40;;;12.70;50.70;;;;;;5033590;28;20116;-73
2023/03/23 01:49:06;;;;;;;2.88;0.93;;;12.90;50.10;;;;;;5033501;28;20036;-73
2023/03/23 01:51:34;;;;;;;1.35;0.98;;;13.00;49.50;;;;;;5033672;28;20471;-72
2023/03/23 01:54:04;;;;;;;4.07;1.27;;;13.10;48.70;;;;;;5032551;28;20497;-74
2023/03/23 01:56:40;;;;;;;2.08;1.00;;;13.30;48.80;;;;;;5033494;28;20049;-73
2023/03/23 01:59:07;;;;;;;2.30;0.90;;;13.40;48.20;;;;;;5033274;28;20044;-74
2023/03/23 02:01:36;;;;;;;4.13;1.05;;;13.50;48.40;;;;;;5033435;28;20079;-72
2023/03/23 02:04:02;;;;;;;1.40;0.90;;;13.50;48.30;;;;;;5033496;28;20025;-72
2023/03/23 02:06:28;;;;;;;2.45;0.90;;;13.50;47.90;;;;;;5033318;28;20022;-72
2023/03/23 02:08:54;;;;;;;4.22;1.30;;;13.60;47.80;;;;;;5032301;28;20385;-73
2023/03/23 02:11:23;;;;;;;3.13;1.23;;;13.60;47.70;;;;;;5033226;28;20025;-73
2023/03/23 02:13:49;;;;;;;2.50;1.00;;;13.70;47.90;;;;;;5033257;28;20025;-73
2023/03/23 02:16:44;;;;;;;1.83;1.05;;;13.60;48.20;;;;;;5032882;28;20359;-73
2023/03/23 02:19:37;;;;;;;1.63;1.23;;;13.60;48.70;;;;;;5032981;28;20071;-74
2023/03/23 02:22:21;;;;;;;1.65;1.30;;;13.40;49.40;;;;;;5032675;28;20492;-73
2023/03/23 02:25:01;;;;;;;2.70;1.10;;;13.40;49.90;;;;;;5033028;28;20033;-73
2023/03/23 02:27:35;;;;;;;2.67;1.50;;;13.40;48.90;;;;;;5033180;28;20025;-73
2023/03/23 02:30:32;;;;;;;1.85;1.10;;;13.30;49.60;;;;;;5032822;28;20021;-73
2023/03/23 02:33:26;;;;;;;1.27;0.77;;;13.30;49.60;;;;;;5036413;28;20021;-73
2023/03/23 02:36:01;;;;;;;2.58;1.02;;;13.30;49.30;;;;;;5033277;28;20022;-74
2023/03/23 02:38:43;;;;;;;1.67;1.20;;;13.40;48.40;;;;;;5032938;28;20049;-74
2023/03/23 02:41:11;;;;;;;2.53;0.80;;;13.50;48.20;;;;;;5032836;28;20267;-73
2023/03/23 02:43:42;;;;;;;3.08;1.05;;;13.70;48.00;;;;;;5032632;28;20083;-73
2023/03/23 02:46:09;;;;;;;2.70;1.13;;;13.80;47.60;;;;;;5032410;28;20429;-73
2023/03/23 02:48:36;;;;;;;1.50;1.00;;;13.90;47.10;;;;;;5032443;28;20018;-72
2023/03/23 02:51:03;;;;;;;1.85;0.98;;;14.00;46.50;;;;;;5032397;28;20486;-73
2023/03/23 02:53:30;;;;;;;6.93;1.25;;;14.10;46.50;;;;;;5031972;28;20028;-73
2023/03/23 02:55:57;;;;;;;1.77;0.85;;;14.20;45.80;;;;;;5032538;28;20116;-73
2023/03/23 02:58:24;;;;;;;2.67;1.10;;;14.20;46.10;;;;;;5032339;28;20073;-73
2023/03/23 03:00:51;;;;;;;1.80;0.88;;;14.20;45.80;;;;;;5032215;28;20036;-73
2023/03/23 03:03:24;;;;;;;1.98;1.00;;;14.20;45.80;;;;;;5032095;28;20040;-72
2023/03/23 03:05:50;;;;;;;2.00;1.05;;;14.20;45.90;;;;;;5031985;28;20117;-73
2023/03/23 03:08:33;;;;;;;1.35;1.13;;;14.30;45.40;;;;;;5032272;28;20112;-73
2023/03/23 03:11:09;;;;;;;1.75;1.00;;;14.20;45.10;;;;;;5032108;28;20067;-73
2023/03/23 03:13:56;;;;;;;2.08;1.35;;;14.30;45.10;;;;;;5032026;28;20486;-75
2023/03/23 03:16:27;;;;;;;1.73;1.13;;;14.30;44.80;;;;;;5032203;28;20037;-75
2023/03/23 03:19:11;;;;;;;1.92;0.80;;;14.40;44.10;;;;;;5031894;28;20033;-73
2023/03/23 03:21:41;;;;;;;1.23;0.90;;;14.40;43.80;;;;;;5032054;28;20029;-73
2023/03/23 03:24:10;;;;;;;2.70;0.80;;;14.40;43.80;;;;;;5031946;28;20079;-73
2023/03/23 03:26:39;;;;;;;1.98;0.90;;;14.50;43.30;;;;;;5031621;28;20406;-73
2023/03/23 03:29:06;;;;;;;1.30;0.77;;;14.40;43.70;;;;;;5031969;28;20026;-73
2023/03/23 03:31:39;;;;;;;1.38;0.98;;;14.40;43.30;;;;;;5031894;28;20026;-73
2023/03/23 03:34:05;;;;;;;1.65;1.10;;;14.40;43.40;;;;;;5031805;28;20026;-73
2023/03/23 03:36:37;;;;;;;3.75;1.15;;;14.40;43.60;;;;;;5031695;28;20068;-76
2023/03/23 03:39:09;;;;;;;2.15;1.02;;;14.40;43.50;;;;;;5031423;28;20045;-76
2023/03/23 03:41:35;;;;;;;4.93;1.17;;;14.40;43.50;;;;;;5031517;28;20501;-74
2023/03/23 03:44:02;;;;;;;1.67;0.98;;;14.40;43.10;;;;;;5031869;28;20038;-74
2023/03/23 03:46:30;;;;;;;2.65;1.08;;;14.40;43.30;;;;;;5031680;28;20022;-75
2023/03/23 03:48:56;;;;;;;3.00;1.30;;;14.40;43.30;;;;;;5031742;28;20061;-75
2023/03/23 03:51:23;;;;;;;2.83;1.20;;;14.40;43.50;;;;;;5031642;28;20029;-72
2023/03/23 03:53:49;;;;;;;1.70;1.23;;;14.40;44.60;;;;;;5031651;28;20018;-72
2023/03/23 03:56:16;;;;;;;1.63;1.00;;;14.30;45.20;;;;;;5031883;28;20102;-72
2023/03/23 03:58:42;;;;;;;3.35;1.60;;;14.10;46.30;;;;;;5031655;28;20100;-72
2023/03/23 04:01:10;;;;;;;1.65;1.00;;;14.00;46.40;;;;;;5031659;28;20471;-73
2023/03/23 04:03:36;;;;;;;2.03;1.15;;;13.80;47.80;;;;;;5031793;28;20055;-72
2023/03/23 04:06:03;;;;;;;4.10;1.42;;;13.70;47.90;;;;;;5031917;28;20148;-72
2023/03/23 04:08:29;;;;;;;1.98;0.90;;;13.60;48.30;;;;;;5031373;28;20057;-72
2023/03/23 04:10:55;;;;;;;4.50;2.95;;;13.60;48.40;;;;;;5031714;28;20462;-72
2023/03/23 04:13:22;;;;;;;4.88;1.55;;;13.50;48.40;;;;;;5031347;28;20029;-72
2023/03/23 04:15:48;;;;;;;2.40;1.25;;;13.50;48.60;;;;;;5031480;28;20021;-73
2023/03/23 04:18:17;;;;;;;2.90;1.42;;;13.50;48.50;;;;;;5031393;28;20095;-74
2023/03/23 04:20:47;;;;;;;1.88;1.20;;;13.50;49.10;;;;;;5031196;28;20466;-73
2023/03/23 04:23:14;;;;;;;3.10;1.50;;;13.30;50.00;;;;;;5031214;28;20033;-74
2023/03/23 04:25:41;;;;;;;4.25;1.40;;;13.30;49.90;;;;;;5031583;28;20025;-72
2023/03/23 04:28:10;;;;;;;3.17;1.25;;;13.20;50.50;;;;;;5031452;28;20021;-72
2023/03/23 04:30:36;;;;;;;7.90;2.17;;;13.10;50.30;;;;;;5031264;28;20076;-72
2023/03/23 04:33:02;;;;;;;4.43;1.35;;;13.10;51.00;;;;;;5035623;28;20020;-72
2023/03/23 04:35:29;;;;;;;1.50;1.23;;;13.00;51.40;;;;;;5035995;28;20025;-73
2023/03/23 04:37:55;;;;;;;6.53;2.00;;;13.00;51.60;;;;;;5035729;28;20077;-72
2023/03/23 04:40:22;;;;;;;4.85;1.40;;;12.90;51.90;;;;;;5034692;28;20428;-73
2023/03/23 04:42:48;;;;;;;4.28;2.10;;;12.90;52.10;;;;;;5034588;28;20578;-73
2023/03/23 04:45:21;;;;;;;3.58;1.60;;;12.90;52.30;;;;;;5035882;28;20056;-74
2023/03/23 04:47:52;;;;;;;8.50;1.95;;;12.80;52.00;;;;;;5035795;28;20017;-73
2023/03/23 04:50:23;;;;;;;2.92;1.55;;;12.80;52.30;;;;;;5035665;28;20022;-73
2023/03/23 04:52:51;;;;;;;3.47;1.20;;;12.90;51.10;;;;;;5035597;28;20033;-73
2023/03/23 04:55:18;;;;;;;2.58;1.40;;;12.90;51.10;;;;;;5036352;28;20025;-73
2023/03/23 04:57:44;;;;;;;1.48;1.38;;;13.00;51.80;;;;;;5035529;28;20043;-73
2023/03/23 05:00:17;;;;;;;3.53;1.65;;;12.90;51.90;;;;;;5035809;28;20104;-73
2023/03/23 05:02:46;;;;;;;2.83;1.58;;;12.90;51.70;;;;;;5035536;28;20363;-73
2023/03/23 05:05:13;;;;;;;2.75;1.33;;;12.90;52.20;;;;;;5035613;28;20045;-73
2023/03/23 05:07:40;;;;;;;6.03;1.25;;;12.90;51.90;;;;;;5035534;28;20018;-73
2023/03/23 05:10:07;;;;;;;2.88;1.70;;;12.90;52.00;;;;;;5035514;28;20022;-73
2023/03/23 05:12:33;;;;;;;3.88;1.60;;;12.90;51.90;;;;;;5033940;28;20059;-73
2023/03/23 05:14:59;;;;;;;6.10;1.98;;;12.90;51.80;;;;;;5035244;28;20495;-72
2023/03/23 05:17:25;;;;;;;2.90;1.80;;;12.90;51.60;;;;;;5034877;28;20410;-73
2023/03/23 05:19:52;;;;;;;2.50;1.50;;;12.90;51.50;;;;;;5035117;28;20022;-72
2023/03/23 05:22:20;;;;;;;4.22;1.85;;;13.00;51.30;;;;;;5035080;28;20056;-73
2023/03/23 05:24:47;;;;;;;2.88;1.58;;;13.00;51.40;;;;;;5033885;28;20026;-72
2023/03/23 05:27:14;;;;;;;4.00;1.83;;;12.90;51.80;;;;;;5035278;28;20026;-73
2023/03/23 05:29:40;;;;;;;3.60;1.60;;;12.90;51.50;;;;;;5035054;28;20068;-73
2023/03/23 05:32:07;;;;;;;3.65;1.45;;;13.00;51.30;;;;;;5034976;28;20031;-73
2023/03/23 05:34:34;;;;;;;3.13;1.67;;;13.00;51.40;;;;;;5035064;28;20479;-73
2023/03/23 05:37:01;;;;;;;3.67;1.48;;;12.90;52.40;;;;;;5034947;28;20021;-73
2023/03/23 05:39:31;;;;;;;2.28;1.40;;;12.90;51.50;;;;;;5034627;28;20049;-73
2023/03/23 05:41:57;;;;;;;4.28;1.50;;;12.90;51.50;;;;;;5034792;28;20044;-73
2023/03/23 05:44:23;;;;;;;2.70;1.23;;;12.90;51.40;;;;;;5033668;28;20033;-72
2023/03/23 05:46:49;;;;;;;3.15;1.77;;;12.90;51.30;;;;;;5034764;28;20045;-73
2023/03/23 05:49:18;;;;;;;3.20;1.58;;;12.90;51.90;;;;;;5034720;28;20061;-72
2023/03/23 05:51:45;;;;;;;2.45;1.75;;;12.90;51.50;;;;;;5034629;28;20030;-73
2023/03/23 05:54:12;;;;;;;3.38;1.52;;;13.00;52.00;;;;;;5034605;28;20083;-73
2023/03/23 05:56:37;;;;;;;3.50;1.35;;;12.90;52.00;;;;;;5034607;28;20018;-73
2023/03/23 05:59:03;;;;;;;4.43;1.85;;;12.90;52.30;;;;;;5034493;28;20591;-74
2023/03/23 06:01:29;;;;;;;3.50;1.70;;;12.90;52.30;;;;;;5034439;28;20026;-74
2023/03/23 06:03:58;;;;;;;3.97;1.70;;;12.90;52.00;;;;;;5034364;28;20025;-74
2023/03/23 06:06:24;;;;;;;4.00;1.48;;;12.90;52.30;;;;;;5034058;28;20433;-73
2023/03/23 06:08:50;;;;;;;3.70;1.55;;;12.90;52.20;;;;;;5034123;28;20108;-73
2023/03/23 06:11:16;;;;;;;5.05;1.98;;;12.90;52.20;;;;;;5034242;28;20638;-73
2023/03/23 06:13:41;;;;;;;4.20;1.10;;;12.90;51.50;;;;;;5034053;28;20037;-73
2023/03/23 06:16:08;;;;;;;4.43;1.55;;;13.00;50.80;;;;;;5034190;28;20029;-73
2023/03/23 06:18:36;;;;;;;3.22;1.23;;;13.00;50.60;;;;;;5033930;28;20033;-73
2023/03/23 06:21:02;;;;;;;3.13;1.27;;;13.20;49.10;;;;;;5033739;28;20052;-73
2023/03/23 06:23:28;;;;;;;2.45;1.52;;;13.40;48.40;;;;;;5033799;28;20033;-73
2023/03/23 06:25:59;;;;;;;4.38;1.52;;;13.50;48.40;;;;;;5033757;28;20086;-74
2023/03/23 06:28:26;;;;;;;2.28;1.45;;;13.60;48.10;;;;;;5033580;28;20029;-73
2023/03/23 06:30:52;;;;;;;4.55;1.58;;;13.70;47.40;;;;;;5031926;28;20480;-73
2023/03/23 06:33:18;;;;;;;4.13;1.30;;;13.80;47.50;;;;;;5033872;28;20057;-73
2023/03/23 06:35:44;;;;;;;2.83;1.63;;;13.90;47.30;;;;;;5033844;28;20108;-74
2023/03/23 06:38:10;;;;;;;5.35;1.40;;;13.90;46.90;;;;;;5034027;28;20042;-73
2023/03/23 06:40:38;;;;;;;5.82;1.90;;;14.00;47.00;;;;;;5034592;28;20037;-73
2023/03/23 06:43:04;;;;;;;3.25;1.38;;;14.00;47.00;;;;;;5032174;28;20026;-73
2023/03/23 06:45:30;;;;;;;2.08;1.45;;;14.10;46.70;;;;;;5033330;28;20030;-72
2023/03/23 06:47:56;;;;;;;3.97;1.67;;;14.10;46.70;;;;;;5033314;28;20030;-73
2023/03/23 06:50:23;;;;;;;2.88;1.77;;;14.20;46.40;;;;;;5032118;28;20076;-73
2023/03/23 06:52:50;;;;;;;2.92;1.73;;;14.30;46.20;;;;;;5033440;28;20074;-75
2023/03/23 06:55:17;;;;;;;3.10;1.98;;;14.30;46.40;;;;;;5032999;28;20475;-73
2023/03/23 06:57:44;;;;;;;6.75;2.00;;;14.40;46.20;;;;;;5033063;28;20037;-75
2023/03/23 07:00:12;;;;;;;2.60;1.52;;;14.40;46.00;;;;;;5033135;28;20029;-74
2023/03/23 07:02:38;;;;;;;2.80;1.63;;;14.50;46.10;;;;;;5033192;28;20056;-75
2023/03/23 07:05:04;;;;;;;3.10;1.88;;;14.50;46.20;;;;;;5033198;28;20486;-76
2023/03/23 07:07:30;;;;;;;2.35;1.85;;;14.50;46.50;;;;;;5033048;28;20471;-75
2023/03/23 07:09:57;;;;;;;3.58;1.70;;;14.50;46.60;;;;;;5032789;28;20108;-76
2023/03/23 07:12:23;;;;;;;2.78;1.73;;;14.50;46.70;;;;;;5031734;28;20437;-75
2023/03/23 07:14:48;;;;;;;2.80;1.80;;;14.50;46.90;;;;;;5031678;28;20055;-75
2023/03/23 07:17:14;;;;;;;4.05;1.85;;;14.50;46.80;;;;;;5032641;28;20100;-72
2023/03/23 07:19:40;;;;;;;3.63;1.63;;;14.50;47.00;;;;;;5032958;28;20057;-72
2023/03/23 07:22:07;;;;;;;3.38;2.17;;;14.50;47.00;;;;;;5032738;28;20021;-73
2023/03/23 07:24:33;;;;;;;2.55;1.40;;;14.50;47.20;;;;;;5032822;28;20033;-73
2023/03/23 07:27:00;;;;;;;3.00;1.80;;;14.70;47.40;;;;;;5032779;28;20386;-73
2023/03/23 07:29:26;;;;;;;3.88;1.80;;;14.70;47.20;;;;;;5032931;28;20104;-73
2023/03/23 07:31:52;;;;;;;2.97;1.52;;;14.60;47.20;;;;;;5032889;28;20017;-74
2023/03/23 07:34:18;;;;;;;4.90;1.75;;;14.50;47.50;;;;;;5032782;28;20029;-73
2023/03/23 07:36:44;;;;;;;3.35;1.35;;;14.50;47.70;;;;;;5032246;28;20025;-73
2023/03/23 07:39:10;;;;;;;2.92;1.50;;;14.50;47.70;;;;;;5032183;28;20052;-75
2023/03/23 07:41:35;;;;;;;3.10;1.58;;;14.50;47.90;;;;;;5032735;28;20030;-73
2023/03/23 07:44:01;;;;;;;2.25;1.50;;;14.50;48.30;;;;;;5032645;28;20021;-74
2023/03/23 07:46:27;;;;;;;5.80;2.08;;;14.40;48.50;;;;;;5032659;28;20092;-76
2023/03/23 07:48:53;;;;;;;3.13;1.77;;;14.40;49.00;;;;;;5032731;28;20057;-76
2023/03/23 07:51:19;;;;;;;3.35;1.80;;;14.50;49.00;;;;;;5032655;28;20022;-76
2023/03/23 07:53:44;;;;;;;1.80;1.25;;;14.60;48.90;;;;;;5032700;28;20033;-75
2023/03/23 07:56:12;;;;;;;3.08;1.63;;;14.80;48.50;;;;;;5032787;28;20022;-77
2023/03/23 07:58:37;;;;;;;4.40;1.60;;;14.90;48.10;;;;;;5032457;28;20109;-75
2023/03/23 08:01:03;;;;;;;3.42;1.83;;;15.10;47.50;;;;;;5032391;28;20056;-76
2023/03/23 08:03:29;;;;;;;2.90;1.70;;;15.10;47.20;;;;;;5032232;28;20088;-76
2023/03/23 08:05:59;;;;;;;2.80;2.03;;;15.00;47.50;;;;;;5032468;28;20083;-77
2023/03/23 08:08:25;;;;;;;3.92;1.67;;;15.00;47.70;;;;;;5036339;28;20025;-76
2023/03/23 08:10:51;;;;;;;4.13;1.60;;;15.00;47.70;;;;;;5036287;28;20017;-75
2023/03/23 08:13:16;;;;;;;3.03;1.30;;;15.00;48.00;;;;;;5036128;28;20033;-76
2023/03/23 08:15:42;;;;;;;2.80;1.40;;;15.00;48.40;;;;;;5036334;28;20054;-76
2023/03/23 08:18:09;;;;;;;3.80;2.10;;;15.00;48.90;;;;;;5036145;28;20397;-75
2023/03/23 08:20:35;;;;;;;4.55;1.60;;;15.00;48.60;;;;;;5036006;28;20037;-77
2023/03/23 08:23:02;;;;;;;4.68;1.63;;;15.00;48.30;;;;;;5036122;28;20023;-76
2023/03/23 08:25:30;;;;;;;3.35;1.27;;;15.10;48.50;;;;;;5036154;28;20054;-76
2023/03/23 08:27:57;;;;;;;3.15;1.90;;;15.20;48.10;;;;;;5035911;28;20621;-76
2023/03/23 08:30:24;;;;;;;2.67;1.83;;;15.20;48.50;;;;;;5035734;28;20644;-76
2023/03/23 08:32:50;;;;;;;3.80;1.40;;;15.10;48.50;;;;;;5035729;28;20021;-76
2023/03/23 08:35:17;;;;;;;3.17;1.40;;;15.00;49.10;;;;;;5035818;28;20474;-76
2023/03/23 08:37:43;;;;;;;4.03;1.52;;;15.00;49.30;;;;;;5035463;28;20081;-76
2023/03/23 08:40:11;;;;;;;2.60;1.40;;;14.80;49.40;;;;;;5035846;28;20022;-76
2023/03/23 08:42:38;;;;;;;2.95;1.85;;;14.70;50.40;;;;;;5035817;28;20121;-76
2023/03/23 08:45:09;;;;;;;5.88;2.80;;;14.70;50.30;;;;;;5035657;28;20025;-76
2023/03/23 08:47:36;;;;;;;1.85;1.35;;;14.80;49.90;;;;;;5036464;28;20021;-76
2023/03/23 08:50:03;;;;;;;5.28;1.65;;;14.80;50.10;;;;;;5033939;28;20021;-75
2023/03/23 08:52:29;;;;;;;3.63;1.50;;;14.80;50.20;;;;;;5035629;28;20479;-76
2023/03/23 08:54:58;;;;;;;2.30;1.50;;;14.90;50.00;;;;;;5035336;28;20402;-75
2023/03/23 08:57:27;;;;;;;5.00;1.65;;;15.00;49.40;;;;;;5034697;28;20179;-76
2023/03/23 08:59:59;;;;;;;3.08;1.60;;;15.00;50.10;;;;;;5035564;28;20501;-76
2023/03/23 09:02:26;;;;;;;5.68;1.73;;;15.20;49.60;;;;;;5035907;28;20048;-77
2023/03/23 09:04:52;;;;;;;6.15;1.50;;;15.20;49.30;;;;;;5037684;28;20411;-74
2023/03/23 09:07:20;;;;;;;2.22;1.33;;;15.30;49.60;;;;;;5034088;28;20441;-74
2023/03/23 09:09:46;;;;;;;4.82;1.33;;;15.30;49.70;;;;;;5033871;28;20017;-77
2023/03/23 09:12:13;;;;;;;2.40;1.33;;;15.30;50.40;;;;;;5032139;28;20022;-75
2023/03/23 09:14:39;;;;;;;2.83;1.65;;;15.30;49.60;;;;;;5029794;28;20052;-74
2023/03/23 09:17:05;;;;;;;2.67;1.25;;;15.40;49.80;;;;;;5032231;28;20025;-75
2023/03/23 09:19:33;;;;;;;6.85;1.88;;;15.40;50.40;;;;;;5031774;28;20100;-75
2023/03/23 09:21:58;;;;;;;2.63;1.00;;;15.40;50.90;;;;;;5027161;28;20029;-75
2023/03/23 09:24:25;;;;;;;2.35;1.00;;;15.20;50.00;;;;;;5014040;28;20030;-74
2023/03/23 09:26:50;;;;;;;4.82;1.33;;;15.10;50.50;;;;;;5014045;28;20405;-74
2023/03/23 09:29:16;;;;;;;3.13;1.15;;;15.20;51.10;;;;;;5013587;28;20022;-74
2023/03/23 09:31:42;;;;;;;3.78;0.95;;;15.10;51.30;;;;;;5014033;28;20030;-75
2023/03/23 09:34:12;;;;;;;3.03;1.35;;;15.10;50.70;;;;;;5013345;28;20028;-75
2023/03/23 09:36:39;;;;;;;3.60;1.30;;;15.10;50.60;;;;;;5012162;28;20038;-75
2023/03/23 09:39:09;;;;;;;4.57;1.10;;;15.10;50.70;;;;;;5012991;28;20049;-74
2023/03/23 09:41:54;;;;;;;1.92;0.95;;;15.30;50.50;;;;;;5012944;28;20025;-74
2023/03/23 09:44:29;;;;;;;4.43;1.30;;;15.30;50.60;;;;;;5013432;28;20124;-74
2023/03/23 09:47:00;;;;;;;7.10;1.75;;;15.30;50.90;;;;;;5013262;28;20052;-75
2023/03/23 09:49:40;;;;;;;2.08;1.10;;;15.30;50.70;;;;;;5013218;28;20463;-74
2023/03/23 09:52:13;;;;;;;1.77;1.15;;;15.30;50.90;;;;;;5027625;28;20029;-73
2023/03/23 09:54:47;;;;;;;4.03;1.10;;;15.40;50.50;;;;;;5033259;28;20363;-74
2023/03/23 09:57:18;;;;;;;2.90;1.23;;;15.30;50.40;;;;;;5032930;28;20382;-74
2023/03/23 10:00:14;;;;;;;3.28;1.20;;;15.30;50.60;;;;;;5033219;28;20079;-74
2023/03/23 10:03:01;;;;;;;4.32;1.40;;;15.30;51.00;;;;;;5034139;28;20404;-74
2023/03/23 10:05:34;;;;;;;7.13;1.48;;;15.30;50.90;;;;;;5032651;28;20037;-74
2023/03/23 10:08:05;;;;;;;2.17;1.45;;;15.30;50.90;;;;;;5033759;28;20382;-74
2023/03/23 10:11:05;;;;;;;1.50;1.20;;;15.40;50.00;;;;;;5033004;28;20025;-75
2023/03/23 10:14:00;;;;;;;2.55;0.93;;;15.70;49.10;;;;;;5032425;28;20030;-74
2023/03/23 10:16:29;;;;;;;3.03;1.37;;;15.90;49.00;;;;;;5033306;28;20036;-74
2023/03/23 10:19:21;;;;;;;4.32;1.23;;;16.00;48.90;;;;;;5032313;28;20120;-74
2023/03/23 10:21:52;;;;;;;4.65;1.48;;;15.90;48.70;;;;;;5032083;28;20478;-75
2023/03/23 10:24:24;;;;;;;2.28;1.45;;;15.90;50.50;;;;;;5045703;28;20051;-74
2023/03/23 10:27:18;;;;;;;2.83;1.20;;;15.70;50.90;;;;;;5032050;28;20046;-75
2023/03/23 10:29:59;;;;;;;2.60;1.55;;;15.50;52.90;;;;;;5031636;28;20030;-76
2023/03/23 10:33:13;;;;;;;1.95;1.40;;;15.30;53.70;;;;;;5033556;28;20045;-75
2023/03/23 10:36:00;;;;;;;2.80;1.20;;;15.20;54.50;;;;;;5031964;28;20062;-75
2023/03/23 10:38:31;;;;;;;2.90;1.08;;;15.00;55.30;;;;;;5031946;28;20072;-75
2023/03/23 10:41:01;;;;;;;4.00;1.15;;;15.20;55.00;;;;;;5031735;28;20036;-75
2023/03/23 10:43:27;;;;;;;2.22;1.15;;;15.10;54.00;;;;;;5029519;28;20434;-75
2023/03/23 10:46:13;;;;;;;2.10;1.50;;;15.00;55.20;;;;;;5031912;28;20108;-75
2023/03/23 10:48:39;;;;;;;1.65;1.20;;;15.00;55.50;;;;;;5047057;28;20481;-74
2023/03/23 10:51:10;;;;;;;4.75;1.38;;;15.10;55.30;;;;;;5032483;28;20037;-74
2023/03/23 10:53:38;;;;;;;4.82;1.20;;;15.20;56.20;;;;;;5031850;28;20111;-73
2023/03/23 10:56:05;;;;;;;2.80;1.27;;;15.40;56.50;;;;;;5029420;28;20500;-74
2023/03/23 10:58:34;;;;;;;3.47;1.45;;;15.50;54.80;;;;;;5031057;28;20091;-75
2023/03/23 11:01:02;;;;;;;3.47;1.55;;;15.60;52.80;;;;;;5030554;28;20394;-75
2023/03/23 11:03:49;;;;;;;2.88;1.20;;;15.50;54.50;;;;;;5031214;28;20497;-75
2023/03/23 11:06:28;;;;;;;2.10;1.27;;;15.60;52.20;;;;;;5029695;28;20370;-73
2023/03/23 11:09:12;;;;;;;2.70;1.30;;;15.70;53.60;;;;;;5032690;28;20029;-73
2023/03/23 11:11:42;;;;;;;2.60;1.27;;;15.90;51.90;;;;;;5031269;28;20553;-73
2023/03/23 11:14:18;;;;;;;1.48;0.95;;;16.00;51.50;;;;;;5031635;28;20025;-73
2023/03/23 11:16:52;;;;;;;3.90;1.60;;;16.20;51.00;;;;;;5032297;28;20033;-75
2023/03/23 11:19:24;;;;;;;1.77;1.10;;;16.20;48.50;;;;;;5032501;28;20076;-76
2023/03/23 11:21:53;;;;;;;4.95;1.48;;;16.10;50.00;;;;;;5032712;28;20045;-76
2023/03/23 11:24:22;;;;;;;4.93;1.40;;;16.00;49.60;;;;;;5032690;28;20039;-76
2023/03/23 11:26:48;;;;;;;3.17;1.65;;;16.10;50.20;;;;;;5032297;28;20549;-76
2023/03/23 11:29:20;;;;;;;3.80;1.20;;;15.90;50.20;;;;;;5031236;28;20116;-76
2023/03/23 11:32:00;;;;;;;4.68;1.58;;;15.90;49.70;;;;;;5032669;28;20133;-76
2023/03/23 11:34:41;;;;;;;2.20;1.23;;;15.90;49.90;;;;;;5032757;28;20028;-76
2023/03/23 11:37:35;;;;;;;2.85;1.58;;;15.90;50.10;;;;;;5031080;28;20029;-75
2023/03/23 11:40:22;;;;;;;5.30;1.48;;;15.80;51.40;;;;;;5028693;28;20038;-75
2023/03/23 11:43:06;;;;;;;3.20;1.70;;;15.70;51.10;;;;;;5036637;28;20021;-75
2023/03/23 11:45:39;;;;;;;2.25;1.30;;;15.80;49.20;;;;;;5035656;28;20049;-75
2023/03/23 11:48:30;;;;;;;2.83;1.45;;;15.90;49.40;;;;;;5035207;28;20075;-75
2023/03/23 11:51:20;;;;;;;1.63;1.20;;;16.10;49.00;;;;;;5034879;28;20022;-76
2023/03/23 11:54:04;;;;;;;2.22;1.20;;;16.50;48.20;;;;;;5036505;28;20025;-75
2023/03/23 11:56:34;;;;;;;4.28;1.75;;;17.00;47.30;;;;;;5035879;28;20021;-76
2023/03/23 11:59:00;;;;;;;2.40;1.25;;;17.30;46.30;;;;;;5035553;28;20034;-77
2023/03/23 12:01:32;;;;;;;2.85;1.40;;;17.60;44.50;;;;;;5050603;28;20113;-76
2023/03/23 12:04:03;;;;;;;2.03;1.23;;;17.70;44.20;;;;;;5034744;28;20116;-76
2023/03/23 12:06:54;;;;;;;4.47;1.42;;;18.00;43.30;;;;;;5036235;28;20022;-76
2023/03/23 12:09:39;;;;;;;2.33;1.33;;;18.20;42.60;;;;;;5034930;28;20030;-76
2023/03/23 12:12:15;;;;;;;1.67;1.23;;;18.20;43.40;;;;;;5035687;28;20442;-76
2023/03/23 12:15:15;;;;;;;5.10;1.60;;;18.40;42.20;;;;;;5035962;28;20021;-76
2023/03/23 12:18:11;;;;;;;3.47;1.52;;;18.30;41.70;;;;;;5034554;28;20080;-74
2023/03/23 12:20:48;;;;;;;;;;;18.10;41.70;;;;;;5034676;28;20029;-75
2023/03/23 12:23:28;;;;;;;2.22;1.40;;;17.80;42.20;;;;;;5034256;28;19963;-75
2023/03/23 12:26:19;;;;;;;4.80;1.63;;;17.60;42.60;;;;;;5034015;28;20025;-75
2023/03/23 12:29:19;;;;;;;2.67;1.73;;;17.20;42.60;;;;;;5034123;28;20104;-75
2023/03/23 12:31:49;;;;;;;3.10;1.70;;;17.00;44.00;;;;;;5035602;28;20089;-75
2023/03/23 12:34:20;;;;;;;4.07;1.30;;;17.10;44.80;;;;;;5034257;28;20032;-76
2023/03/23 12:37:19;;;;;;;4.05;1.77;;;17.10;43.90;;;;;;5035457;28;20028;-74
2023/03/23 12:40:10;;;;;;;1.58;1.20;;;17.10;43.50;;;;;;5035313;28;20045;-86
2023/03/23 12:42:55;;;;;;;3.47;1.50;;;16.90;44.30;;;;;;5034426;28;20026;-79
2023/03/23 12:45:49;;;;;;;2.97;1.80;;;16.90;44.30;;;;;;5034180;28;20021;-78
2023/03/23 12:48:25;;;;;;;2.53;1.33;;;16.70;44.90;;;;;;5033792;28;20364;-74
2023/03/23 12:51:21;;;;;;;3.88;1.45;;;16.70;44.70;;;;;;5034159;28;20025;-73
2023/03/23 12:53:57;;;;;;;1.75;1.23;;;16.50;46.00;;;;;;5033384;28;20125;-82
2023/03/23 12:56:29;;;;;;;5.72;1.73;;;16.60;45.80;;;;;;5034325;28;20041;-77
2023/03/23 12:59:13;;;;;;;2.60;1.30;;;16.50;45.20;;;;;;5034563;28;20128;-74
2023/03/23 13:01:45;;;;;;;1.48;1.17;;;16.50;45.50;;;;;;5033728;28;20172;-74
2023/03/23 13:07:46;;;;;;;2.47;1.60;;;16.40;45.80;;;;;;5034140;28;20172;-74
2023/03/23 13:10:23;;;;;;;3.40;1.63;;;16.40;46.10;;;;;;5033299;28;20025;-74